Meteo Giornale » Osservazioni meteo Canada » Hope B C
ore: 15:00 - Osservazioni Meteo Hope B C
Lat. 49° 22' N Lon. 121° 29' W Alt. 39 metri s.l.m.
26 °C
Sereno
Temp. 24 Ore
12 °C
26 °C
Ovest
22.2 Km/h
Dew point 12 °C
Umidità 41 %
Visibilità 14 Km
Il sole sorge alle ore 06:21
Il sole tramonta alle ore 19:51
| Data e Ora | Cielo e Fenomeni | T °C | DP °C | Um. % | Pres. hPa | Vis. km | Vento km/h | |
|---|---|---|---|---|---|---|---|---|
| Oggi h: 15:00 | Sereno | 26 | 12 | 41 | 1009 | 14 | O 22.2 | |
| Oggi h: 14:00 | Sereno | 25 | 11 | 41 | 1010 | 14 | O 14.8 | |
| Oggi h: 13:00 | Sereno | 24 | 11 | 43 | 1011 | 14 | N 5.5 | |
| Oggi h: 12:00 | Sereno | 21 | 10 | 49 | 1012 | 14 | E/NE 9.3 | |
| Oggi h: 11:00 | Sereno | 20 | 10 | 52 | 1013 | 14 | E 13 | |
| Oggi h: 10:00 | Sereno | 17 | 10 | 63 | 1014 | 14 | E 14.8 | |
| Oggi h: 09:00 | Sereno | 15 | 10 | 72 | 1015 | 14 | E 14.8 | |
| Oggi h: 08:00 | Sereno | 13 | 10 | 81 | 1015 | 14 | E/SE 16.7 | |
| Oggi h: 07:00 | Sereno | 12 | 10 | 87 | 1015 | 14 | E/SE 20.3 | |
| Oggi h: 06:00 | Poco Nuvoloso | 12 | 10 | 87 | 1016 | 14 | E 16.7 | |
| Oggi h: 05:00 | Poco Nuvoloso | 12 | 11 | 93 | 1016 | 14 | E 16.7 | |
| Oggi h: 04:00 | Poco Nuvoloso | 12 | 11 | 93 | 1016 | 14 | E 9.3 | |
| Oggi h: 03:00 | Sereno | 12 | 11 | 93 | 1017 | 14 | E/SE 13 | |
| Oggi h: 02:00 | Coperto | 14 | 12 | 87 | 1017 | 14 | E/NE 7.4 | |
| Oggi h: 01:00 | Sereno | 14 | 12 | 87 | 1017 | 14 | E/NE 7.4 | |
| Oggi h: 00:00 | Molto Nuvoloso | 15 | 12 | 82 | 1017 | 14 | N 5.5 | |
| Ieri h: 23:00 | Coperto | 16 | 12 | 77 | 1018 | 14 | N 0 | |
| Ieri h: 22:00 | Coperto | 16 | 13 | 82 | 1018 | 14 | N 0 | |
| Ieri h: 21:00 | Coperto | 16 | 13 | 82 | 1018 | 14 | N 0 | |
| Ieri h: 20:00 | Coperto | 17 | 13 | 77 | 1018 | 14 | N 5.5 | |
| Ieri h: 19:00 | Molto Nuvoloso | 18 | 12 | 67 | 1018 | 14 | N 5.5 | |
| Ieri h: 18:00 | Coperto | 19 | 12 | 63 | 1018 | 14 | N 5.5 | |
| Ieri h: 17:30 | Molto Nuvoloso | 19 | 12 | 63 | 1018 | 14 | N 5.5 | |
| Ieri h: 17:15 | Pioggia | 19 | 12 | 63 | 1018 | 14 | O 11.1 | |
| Ieri h: 17:00 | Coperto | 19 | 12 | 63 | 1018 | 14 | O/NO 9.3 | |
| Ieri h: 16:00 | Coperto | 19 | 12 | 63 | 1019 | 14 | O 13 | |



